Fair Play, Texas
Current Conditions -  °F | °C
As of 10:53 AM on Thursday 27 Nov 2014 (Local Time) from KGGG Reporting Station
Clear Clear  
Wind Chill: 55°   Ceiling: Unl
Heat Index: 55°   Visibility: 10mi
Dew Point: 24°   Wind: 6mph
Humidity: 30%   Direction: 20°NNE
Pressure: 30.52"   Gusts: NA
Location:  32.2533°N, 94.4616°W
Report Text: KGGG 271653Z 02005KT 10SM CLR 13/M04 A3052 RMK AO2 SLP336 T01281044
Loading
Personal Weather Stations






























Interactive Weather Map New forecast layout! Learn more

10-Day Weather Forecast

Advertisements
Track Severe Weather on mobile